Time;durP1;ratioP1;P1;durP2;ratioP2;P2;SDS_P1;SDS_P2;PMS_P1;PMS_P2;Temp;Humidity;BMP_temperature;BMP_pressure;BME280_temperature;BME280_humidity;BME280_pressure;Samples;Min_cycle;Max_cycle;Signal;HPM_P1;HPM_P2
2023/03/18 00:02:35;;;;;;;37.20;16.40;;;;;;;4.43;69.58;100466.56;213845;1289;137975;-89
2023/03/18 00:07:36;;;;;;;32.90;15.70;;;;;;;4.38;69.52;100463.34;213674;1291;138186;-90
2023/03/18 00:12:38;;;;;;;36.10;15.50;;;;;;;4.34;69.78;100463.29;215813;1288;104557;-90
2023/03/18 00:17:40;;;;;;;32.80;15.10;;;;;;;4.31;69.64;100459.22;214125;1288;138292;-89
2023/03/18 00:22:41;;;;;;;32.20;16.20;;;;;;;4.29;69.62;100451.98;214368;1289;137751;-90
2023/03/18 00:27:41;;;;;;;32.70;15.80;;;;;;;4.27;69.71;100449.23;213580;1289;138941;-90
2023/03/18 00:32:42;;;;;;;35.10;16.40;;;;;;;4.23;69.78;100449.03;214063;1288;138185;-89
2023/03/18 00:37:44;;;;;;;39.60;19.00;;;;;;;4.20;69.70;100439.83;213688;1289;138123;-90
2023/03/18 00:42:49;;;;;;;44.40;19.70;;;;;;;4.16;69.86;100435.30;214260;1289;98200;-88
2023/03/18 00:47:49;;;;;;;40.20;18.10;;;;;;;4.12;70.01;100429.94;213414;1293;138372;-89
2023/03/18 00:52:50;;;;;;;30.70;14.70;;;;;;;4.07;70.21;100420.67;214001;1288;137846;-90
2023/03/18 00:57:51;;;;;;;35.40;16.20;;;;;;;4.01;70.63;100423.48;213375;1288;139406;-90
2023/03/18 01:02:53;;;;;;;34.10;15.60;;;;;;;3.96;70.54;100422.06;213971;1289;138098;-90
2023/03/18 01:07:53;;;;;;;29.60;13.20;;;;;;;3.92;70.82;100412.48;213448;1288;138203;-89
2023/03/18 01:12:53;;;;;;;29.90;15.20;;;;;;;3.88;70.99;100416.23;213874;1289;97950;-91
2023/03/18 01:17:55;;;;;;;34.20;16.90;;;;;;;3.85;70.97;100413.46;213520;1293;138726;-91
2023/03/18 01:22:57;;;;;;;32.30;15.20;;;;;;;3.83;71.03;100410.58;213838;1294;138567;-90
2023/03/18 01:27:58;;;;;;;33.60;14.80;;;;;;;3.79;71.28;100412.98;213467;1291;138458;-89
2023/03/18 01:32:59;;;;;;;33.20;15.20;;;;;;;3.75;71.26;100418.84;213758;1288;138021;-91
2023/03/18 01:38:01;;;;;;;35.20;15.20;;;;;;;3.73;71.28;100412.30;213473;1289;138739;-92
2023/03/18 01:43:23;;;;;;;35.70;16.10;;;;;;;3.69;71.35;100408.48;214223;1293;111287;-91
2023/03/18 01:48:29;;;;;;;32.30;14.90;;;;;;;3.64;71.76;100404.60;213978;1293;139473;-89
2023/03/18 01:53:37;;;;;;;28.60;13.70;;;;;;;3.62;71.58;100407.95;213860;1289;139600;-90
2023/03/18 01:58:42;;;;;;;36.60;14.50;;;;;;;3.62;71.54;100402.92;213385;1288;140581;-91
2023/03/18 02:03:44;;;;;;;30.10;14.30;;;;;;;3.58;71.64;100405.41;213853;1291;139346;-91
2023/03/18 02:08:45;;;;;;;35.40;14.10;;;;;;;3.56;71.86;100402.55;213452;1288;139143;-88
2023/03/18 02:13:45;;;;;;;35.80;14.70;;;;;;;3.53;71.78;100409.84;213996;1289;138786;-91
2023/03/18 02:18:51;;;;;;;36.00;15.90;;;;;;;3.51;71.82;100405.47;213648;1291;138654;-90
2023/03/18 02:24:21;;;;;;;34.10;14.10;;;;;;;3.50;71.87;100405.67;214085;1289;137659;-90
2023/03/18 02:29:23;;;;;;;31.70;14.30;;;;;;;3.46;71.98;100401.95;213366;1289;139085;-91
2023/03/18 02:34:24;;;;;;;31.10;15.80;;;;;;;3.42;72.13;100396.57;213896;1289;138934;-90
2023/03/18 02:39:25;;;;;;;28.60;14.40;;;;;;;3.37;72.35;100398.33;213382;1294;139496;-91
2023/03/18 02:44:26;;;;;;;30.80;16.40;;;;;;;3.32;72.43;100392.75;213909;1294;139240;-91
2023/03/18 02:49:27;;;;;;;28.40;12.90;;;;;;;3.29;72.59;100391.48;213367;1291;139053;-88
2023/03/18 02:54:29;;;;;;;26.00;13.20;;;;;;;3.26;72.62;100393.86;214048;1289;97995;-91
2023/03/18 02:59:31;;;;;;;31.10;14.30;;;;;;;3.23;72.80;100392.17;213591;1289;138626;-92
2023/03/18 03:04:31;;;;;;;29.60;13.20;;;;;;;3.19;73.14;100390.77;214036;1289;138690;-90
2023/03/18 03:09:32;;;;;;;28.20;14.40;;;;;;;3.16;73.22;100397.77;213416;1288;138620;-89
2023/03/18 03:14:32;;;;;;;28.40;13.20;;;;;;;3.14;73.17;100397.79;213886;1291;138670;-91
2023/03/18 03:19:33;;;;;;;26.90;13.20;;;;;;;3.12;73.32;100402.98;213505;1289;140296;-90
2023/03/18 03:24:33;;;;;;;30.10;13.90;;;;;;;3.08;73.33;100407.35;214139;1293;98291;-91
2023/03/18 03:29:34;;;;;;;31.10;14.20;;;;;;;3.06;73.42;100410.27;213481;1289;139148;-91
2023/03/18 03:34:36;;;;;;;28.80;14.20;;;;;;;3.02;73.32;100410.45;214093;1291;140495;-91
2023/03/18 03:39:37;;;;;;;32.60;14.80;;;;;;;3.00;73.43;100412.52;213720;1292;139458;-91
2023/03/18 03:44:37;;;;;;;28.80;13.20;;;;;;;2.96;73.64;100414.06;214167;1288;139447;-89
2023/03/18 03:49:37;;;;;;;28.90;14.10;;;;;;;2.92;73.86;100415.55;213694;1294;139106;-91
2023/03/18 03:54:40;;;;;;;28.80;12.60;;;;;;;2.89;73.93;100417.20;214138;1291;99383;-92
2023/03/18 03:59:41;;;;;;;30.40;14.20;;;;;;;2.87;73.98;100415.41;213545;1289;138617;-92
2023/03/18 04:04:42;;;;;;;32.80;14.30;;;;;;;2.87;74.04;100412.77;214027;1291;138636;-92
2023/03/18 04:09:42;;;;;;;28.30;13.10;;;;;;;2.88;73.92;100411.95;213207;1288;185612;-92
2023/03/18 04:14:44;;;;;;;29.60;12.20;;;;;;;2.90;73.96;100413.61;213954;1288;139804;-91
2023/03/18 04:19:44;;;;;;;27.30;12.40;;;;;;;2.96;73.72;100413.39;213545;1292;139549;-89
2023/03/18 04:24:45;;;;;;;27.80;13.20;;;;;;;3.01;73.46;100406.37;214196;1289;98029;-90
2023/03/18 04:29:46;;;;;;;26.00;12.10;;;;;;;3.06;73.65;100403.36;213390;1293;138823;-89
2023/03/18 04:34:46;;;;;;;27.40;13.50;;;;;;;3.09;73.47;100405.84;214161;1289;138670;-90
2023/03/18 04:39:47;;;;;;;27.60;12.50;;;;;;;3.13;73.57;100403.71;213542;1289;139230;-89
2023/03/18 04:44:48;;;;;;;26.70;12.30;;;;;;;3.14;73.43;100404.95;213992;1290;138886;-90
2023/03/18 04:49:48;;;;;;;30.70;13.20;;;;;;;3.16;73.65;100401.61;213446;1291;139235;-87
2023/03/18 04:54:49;;;;;;;25.30;11.90;;;;;;;3.18;73.65;100399.97;214113;1289;98072;-88
2023/03/18 04:59:50;;;;;;;26.20;11.30;;;;;;;3.21;73.48;100397.14;213436;1289;138544;-90
2023/03/18 05:04:51;;;;;;;25.90;12.80;;;;;;;3.25;73.37;100401.63;214015;1289;138664;-91
2023/03/18 05:09:51;;;;;;;24.80;12.10;;;;;;;3.28;73.36;100412.89;213273;1294;140988;-91
2023/03/18 05:14:52;;;;;;;24.40;12.00;;;;;;;3.31;73.33;100415.80;213923;1290;140179;-91
2023/03/18 05:19:53;;;;;;;23.70;11.90;;;;;;;3.33;73.28;100412.17;213465;1291;139178;-91
2023/03/18 05:24:53;;;;;;;30.90;11.60;;;;;;;3.36;73.10;100411.19;214077;1289;97918;-91
2023/03/18 05:29:54;;;;;;;23.50;11.40;;;;;;;3.40;72.71;100410.25;213308;1288;138751;-90
2023/03/18 05:34:55;;;;;;;25.60;11.20;;;;;;;3.41;72.50;100407.35;214011;1293;138785;-90
2023/03/18 05:39:55;;;;;;;24.60;12.00;;;;;;;3.43;72.69;100403.20;213601;1294;139355;-91
2023/03/18 05:44:56;;;;;;;26.20;10.60;;;;;;;3.45;72.47;100401.19;213917;1289;139141;-90
2023/03/18 05:49:57;;;;;;;27.70;14.00;;;;;;;3.47;72.18;100402.83;213520;1288;228399;-91
2023/03/18 05:54:57;;;;;;;22.20;10.20;;;;;;;3.50;72.32;100400.14;214081;1288;98877;-89
2023/03/18 05:59:58;;;;;;;20.90;11.40;;;;;;;3.53;72.01;100393.20;213436;1291;138763;-89
2023/03/18 06:04:58;;;;;;;22.90;10.60;;;;;;;3.56;72.07;100395.34;214005;1288;138569;-90
2023/03/18 06:09:59;;;;;;;21.30;10.70;;;;;;;3.60;72.12;100400.79;213678;1291;139402;-90
2023/03/18 06:15:00;;;;;;;21.60;10.20;;;;;;;3.68;72.07;100406.98;214174;1289;139364;-91
2023/03/18 06:20:03;;;;;;;32.40;11.50;;;;;;;3.75;71.84;100411.44;213479;1289;139450;-92
2023/03/18 06:25:06;;;;;;;22.60;11.00;;;;;;;3.82;71.91;100403.15;214147;1290;98837;-90
2023/03/18 06:30:10;;;;;;;23.50;10.80;;;;;;;3.89;71.58;100393.65;213644;1291;138979;-90
2023/03/18 06:35:11;;;;;;;26.40;10.00;;;;;;;3.98;71.34;100395.20;214258;1291;139069;-88
2023/03/18 06:40:12;;;;;;;27.20;13.90;;;;;;;4.08;71.24;100405.20;213484;1294;139637;-89
2023/03/18 06:45:12;;;;;;;24.90;10.00;;;;;;;4.17;70.90;100414.81;213948;1288;139698;-91
2023/03/18 06:50:13;;;;;;;22.30;11.10;;;;;;;4.28;70.58;100414.11;213498;1290;138819;-91
2023/03/18 06:55:14;;;;;;;23.40;13.40;;;;;;;4.38;70.59;100410.80;214146;1292;139180;-91
2023/03/18 07:00:24;;;;;;;21.90;11.90;;;;;;;4.47;70.26;100415.16;214010;1288;138491;-91
2023/03/18 07:05:27;;;;;;;23.90;10.30;;;;;;;4.55;70.10;100426.52;214214;1288;138647;-89
2023/03/18 07:10:29;;;;;;;27.40;10.10;;;;;;;4.63;69.54;100431.40;213605;1288;139433;-92
2023/03/18 07:15:30;;;;;;;24.50;10.20;;;;;;;4.72;69.84;100432.63;214125;1289;138757;-91
2023/03/18 07:20:32;;;;;;;27.40;10.90;;;;;;;4.81;69.71;100430.47;213493;1291;139297;-91
2023/03/18 07:25:33;;;;;;;30.50;15.70;;;;;;;4.93;69.40;100428.44;214047;1294;139093;-90
2023/03/18 07:30:33;;;;;;;24.80;11.00;;;;;;;5.09;69.31;100430.23;213627;1293;140099;-91
2023/03/18 07:35:34;;;;;;;23.00;9.30;;;;;;;5.23;69.02;100427.48;214019;1288;139244;-90
2023/03/18 07:40:35;;;;;;;22.10;9.40;;;;;;;5.36;68.80;100426.48;213421;1289;138530;-91
2023/03/18 07:45:36;;;;;;;18.60;8.80;;;;;;;5.50;68.61;100428.41;214135;1288;139224;-90
2023/03/18 07:50:36;;;;;;;28.50;13.50;;;;;;;5.65;68.26;100428.97;213621;1291;139272;-92
2023/03/18 07:55:37;;;;;;;20.50;9.70;;;;;;;5.82;67.67;100433.95;213958;1289;138699;-91
2023/03/18 08:00:37;;;;;;;19.70;9.10;;;;;;;6.02;67.14;100441.59;213969;1291;139166;-90
2023/03/18 08:05:38;;;;;;;17.00;8.40;;;;;;;6.21;66.78;100440.73;214161;1288;138969;-90
2023/03/18 08:10:39;;;;;;;20.20;8.00;;;;;;;6.39;66.37;100442.01;213468;1288;139780;-88
2023/03/18 08:15:40;;;;;;;17.40;8.80;;;;;;;6.58;65.99;100444.74;214031;1292;138342;-90
2023/03/18 08:20:40;;;;;;;16.50;7.90;;;;;;;6.79;65.87;100448.83;213450;1289;138141;-89
2023/03/18 08:25:42;;;;;;;15.10;7.70;;;;;;;7.02;64.92;100452.86;214089;1289;138055;-91
2023/03/18 08:30:43;;;;;;;15.90;7.30;;;;;;;7.28;64.47;100444.85;213738;1288;138221;-90
2023/03/18 08:35:43;;;;;;;14.00;7.00;;;;;;;7.55;63.77;100442.91;214056;1289;137857;-90
2023/03/18 08:40:45;;;;;;;12.30;6.40;;;;;;;7.84;63.24;100438.80;213513;1293;138023;-89
2023/03/18 08:45:46;;;;;;;18.50;7.50;;;;;;;8.12;62.88;100437.30;214038;1294;137789;-90
2023/03/18 08:50:47;;;;;;;22.70;10.70;;;;;;;8.39;62.33;100435.53;213751;1289;138472;-88
2023/03/18 08:55:47;;;;;;;16.30;7.40;;;;;;;8.60;61.88;100437.56;213876;1291;138068;-87
2023/03/18 09:00:48;;;;;;;15.40;7.20;;;;;;;8.79;60.87;100446.72;213828;1288;138464;-88
2023/03/18 09:05:51;;;;;;;14.50;7.20;;;;;;;9.09;60.93;100444.75;214052;1293;137637;-85
2023/03/18 09:10:54;;;;;;;17.20;7.40;;;;;;;9.50;60.83;100444.08;213844;1293;138094;-85
2023/03/18 09:15:54;;;;;;;18.00;9.50;;;;;;;9.98;60.01;100444.33;214125;1293;137839;-87
2023/03/18 09:20:55;;;;;;;17.30;7.60;;;;;;;10.53;58.82;100444.34;213688;1292;138097;-88
2023/03/18 09:25:56;;;;;;;16.00;8.00;;;;;;;11.05;58.28;100435.66;214311;1291;138282;-94
2023/03/18 09:30:56;;;;;;;15.10;7.30;;;;;;;11.32;56.56;100432.20;214119;1292;137808;-92
2023/03/18 09:35:57;;;;;;;16.90;8.70;;;;;;;11.35;55.21;100436.41;213994;1289;139069;-89
2023/03/18 09:41:13;;;;;;;19.10;8.90;;;;;;;11.57;55.56;100437.05;213762;1289;137950;-88
2023/03/18 09:46:23;;;;;;;19.70;8.60;;;;;;;11.95;54.25;100436.22;213713;1289;138671;-89
2023/03/18 09:51:53;;;;;;;16.90;7.90;;;;;;;12.20;53.49;100430.27;214175;1294;139292;-90
2023/03/18 09:56:54;;;;;;;17.10;8.80;;;;;;;12.36;52.40;100426.09;213890;1294;139421;-89
2023/03/18 10:01:57;;;;;;;16.00;8.00;;;;;;;12.57;53.19;100424.73;214074;1294;138155;-88
2023/03/18 10:07:12;;;;;;;16.60;8.30;;;;;;;12.78;51.54;100427.63;213984;1290;138639;-89
2023/03/18 10:12:30;;;;;;;16.60;8.20;;;;;;;12.94;52.32;100425.77;214018;1294;137815;-88
2023/03/18 10:17:41;;;;;;;14.60;8.00;;;;;;;13.08;51.55;100424.54;214094;1289;139098;-89
2023/03/18 10:22:55;;;;;;;17.50;9.10;;;;;;;13.17;51.46;100424.47;214097;1289;137967;-88
2023/03/18 10:28:34;;;;;;;17.30;8.70;;;;;;;13.26;51.06;100424.08;213552;1291;138669;-86
2023/03/18 10:33:46;;;;;;;15.30;7.70;;;;;;;13.14;49.53;100424.08;213936;1291;138458;-88
2023/03/18 10:38:49;;;;;;;20.80;8.80;;;;;;;13.13;51.41;100412.63;214063;1292;139665;-88
2023/03/18 10:43:54;;;;;;;17.30;8.30;;;;;;;13.29;51.86;100415.08;214394;1289;139989;-87
2023/03/18 10:49:20;;;;;;;18.70;7.70;;;;;;;13.35;51.29;100411.98;214237;1293;138823;-88
2023/03/18 10:54:23;;;;;;;15.70;8.10;;;;;;;13.37;50.60;100407.58;214125;1293;111537;-88
2023/03/18 10:59:27;;;;;;;14.40;8.00;;;;;;;13.40;50.11;100409.54;213565;1291;138655;-88
2023/03/18 11:04:31;;;;;;;15.20;8.30;;;;;;;13.41;50.05;100409.31;214651;1294;138278;-86
2023/03/18 11:09:38;;;;;;;16.00;7.80;;;;;;;13.51;50.08;100403.20;214521;1289;138784;-89
2023/03/18 11:14:39;;;;;;;14.50;7.30;;;;;;;13.68;49.84;100400.35;218253;1288;138921;-87
2023/03/18 11:19:47;;;;;;;16.80;8.60;;;;;;;13.83;49.73;100403.70;214578;1289;139738;-89
2023/03/18 11:25:10;;;;;;;18.10;8.80;;;;;;;14.00;49.43;100408.41;213994;1289;98401;-87
2023/03/18 11:30:10;;;;;;;17.60;10.20;;;;;;;14.23;49.21;100401.23;213385;1293;138948;-87
2023/03/18 11:35:19;;;;;;;19.60;8.60;;;;;;;14.39;49.23;100397.36;214548;1289;138300;-86
2023/03/18 11:40:25;;;;;;;16.00;8.90;;;;;;;14.68;48.96;100407.96;213509;1289;139682;-86
2023/03/18 11:45:47;;;;;;;17.40;8.50;;;;;;;14.88;48.32;100405.07;214019;1294;138924;-86
2023/03/18 11:51:02;;;;;;;14.80;7.60;;;;;;;15.09;47.67;100406.42;213371;1289;138756;-85
2023/03/18 11:56:27;;;;;;;16.50;8.40;;;;;;;15.19;46.75;100404.77;213395;1292;138569;-88
2023/03/18 12:01:46;;;;;;;14.80;8.30;;;;;;;15.15;46.42;100405.10;214096;1292;138650;-88
2023/03/18 12:07:07;;;;;;;14.40;7.80;;;;;;;15.15;46.23;100406.77;213627;1295;138727;-89
2023/03/18 12:12:25;;;;;;;15.70;8.80;;;;;;;15.08;46.35;100408.16;213884;1295;138683;-88
2023/03/18 12:17:35;;;;;;;13.30;8.00;;;;;;;14.96;46.73;100416.41;213472;1293;138570;-86
2023/03/18 12:22:50;;;;;;;18.20;10.10;;;;;;;15.06;47.71;100413.96;213914;1294;138229;-87
2023/03/18 12:27:57;;;;;;;18.20;8.20;;;;;;;15.18;46.67;100405.25;213408;1289;138776;-87
2023/03/18 12:33:31;;;;;;;19.00;9.60;;;;;;;15.22;46.71;100406.16;213917;1290;138115;-88
2023/03/18 12:39:07;;;;;;;17.30;9.10;;;;;;;15.32;46.20;100407.52;213384;1290;138840;-88
2023/03/18 12:44:13;;;;;;;18.70;9.90;;;;;;;15.27;45.86;100407.46;214020;1298;139632;-85
2023/03/18 12:49:21;;;;;;;18.40;9.40;;;;;;;15.30;45.74;100407.36;213673;1290;139610;-87
2023/03/18 12:54:28;;;;;;;20.10;9.30;;;;;;;15.37;45.88;100407.64;214834;1287;138367;-87
2023/03/18 12:59:35;;;;;;;18.60;8.80;;;;;;;15.48;45.91;100402.02;213467;1295;139091;-86
2023/03/18 13:04:37;;;;;;;15.80;8.20;;;;;;;15.48;45.48;100401.23;214013;1289;138480;-88
2023/03/18 13:09:44;;;;;;;19.20;9.30;;;;;;;15.54;46.32;100400.12;213364;1292;138750;-87
2023/03/18 13:14:51;;;;;;;19.50;9.80;;;;;;;15.65;46.67;100396.05;213914;1290;138393;-86
2023/03/18 13:19:51;;;;;;;17.50;9.50;;;;;;;15.66;45.80;100397.70;213383;1290;138785;-87
2023/03/18 13:25:17;;;;;;;17.40;9.30;;;;;;;15.56;46.11;100393.52;213964;1291;97979;-87
2023/03/18 13:30:27;;;;;;;17.10;10.00;;;;;;;15.36;45.36;100394.09;213528;1293;138399;-87
2023/03/18 13:36:03;;;;;;;15.10;7.90;;;;;;;15.19;45.42;100401.03;213880;1293;138259;-86
2023/03/18 13:41:37;;;;;;;16.60;8.40;;;;;;;15.05;45.78;100410.48;213521;1295;138677;-87
2023/03/18 13:46:40;;;;;;;18.10;8.40;;;;;;;14.96;45.81;100413.64;213448;1293;138678;-87
2023/03/18 13:51:49;;;;;;;18.10;9.20;;;;;;;14.88;46.34;100414.89;213940;1289;138625;-87
2023/03/18 13:56:54;;;;;;;19.60;9.10;;;;;;;14.85;45.97;100414.59;213387;1291;138286;-87
2023/03/18 14:02:17;;;;;;;16.10;8.40;;;;;;;14.79;45.76;100416.05;214265;1289;138282;-88
2023/03/18 14:07:22;;;;;;;16.90;8.90;;;;;;;14.73;45.51;100416.24;214261;1289;138421;-87
2023/03/18 14:12:29;;;;;;;16.60;8.70;;;;;;;14.69;46.32;100410.41;214228;1294;137869;-86
2023/03/18 14:17:35;;;;;;;22.30;8.70;;;;;;;14.71;46.65;100414.11;213602;1292;139261;-87
2023/03/18 14:22:38;;;;;;;16.90;9.60;;;;;;;14.69;46.97;100409.78;214015;1289;138321;-87
2023/03/18 14:28:13;;;;;;;19.50;10.40;;;;;;;14.65;46.13;100405.05;213608;1292;139676;-86
2023/03/18 14:33:17;;;;;;;20.30;8.90;;;;;;;14.59;46.56;100395.05;213931;1288;138301;-87
2023/03/18 14:38:21;;;;;;;20.30;10.10;;;;;;;14.56;47.00;100392.69;213624;1293;139737;-87
2023/03/18 14:43:24;;;;;;;17.90;9.40;;;;;;;14.56;46.92;100390.95;214114;1288;106914;-87
2023/03/18 14:48:31;;;;;;;37.70;17.50;;;;;;;14.54;47.03;100386.13;213498;1290;139313;-87
2023/03/18 14:53:43;;;;;;;44.80;19.00;;;;;;;14.55;47.52;100385.02;213972;1291;138281;-87
2023/03/18 14:58:52;;;;;;;20.30;10.10;;;;;;;14.55;47.27;100382.09;213562;1288;138912;-86
2023/03/18 15:03:55;;;;;;;19.00;10.20;;;;;;;14.50;47.25;100376.89;214037;1288;138808;-87
2023/03/18 15:09:00;;;;;;;21.00;10.90;;;;;;;14.45;47.20;100378.26;213337;1292;138979;-87
2023/03/18 15:14:02;;;;;;;26.90;12.80;;;;;;;14.41;47.75;100373.94;213653;1294;140718;-86
2023/03/18 15:19:04;;;;;;;24.10;11.80;;;;;;;14.37;47.89;100376.02;213213;1292;203559;-86
2023/03/18 15:24:06;;;;;;;20.60;10.60;;;;;;;14.33;48.04;100372.77;214755;1288;138688;-87
2023/03/18 15:29:42;;;;;;;21.00;10.10;;;;;;;14.30;47.93;100378.42;213792;1293;139232;-86
2023/03/18 15:34:46;;;;;;;15.80;8.90;;;;;;;14.27;48.08;100382.15;213903;1288;138299;-87
2023/03/18 15:39:47;;;;;;;26.00;11.70;;;;;;;14.24;48.50;100379.31;213495;1288;139345;-87
2023/03/18 15:44:59;;;;;;;19.10;11.20;;;;;;;14.20;48.99;100374.11;213861;1288;139454;-87
2023/03/18 15:50:19;;;;;;;22.60;11.40;;;;;;;14.12;48.90;100372.38;213631;1288;138980;-86
2023/03/18 15:55:28;;;;;;;18.40;10.10;;;;;;;14.06;49.06;100377.06;214037;1288;97947;-86
2023/03/18 16:00:31;;;;;;;18.20;10.40;;;;;;;14.00;49.30;100385.31;213690;1290;139002;-87
2023/03/18 16:05:31;;;;;;;23.30;12.00;;;;;;;13.94;49.93;100383.91;214277;1289;138906;-88
2023/03/18 16:10:32;;;;;;;21.70;11.60;;;;;;;13.89;50.44;100385.11;213507;1291;219456;-89
2023/03/18 16:15:32;;;;;;;21.90;12.00;;;;;;;13.84;51.16;100386.95;214263;1289;139033;-88
2023/03/18 16:20:33;;;;;;;24.90;15.40;;;;;;;13.78;52.11;100384.52;213892;1293;138641;-88
2023/03/18 16:25:33;;;;;;;85.80;45.10;;;;;;;13.74;54.91;100389.98;214417;1291;139789;-87
2023/03/18 16:30:38;;;;;;;87.30;48.90;;;;;;;13.68;54.04;100389.42;213949;1292;138438;-92
2023/03/18 16:35:39;;;;;;;75.60;42.80;;;;;;;13.58;55.21;100392.92;214098;1289;138877;-91
2023/03/18 16:40:40;;;;;;;64.40;33.40;;;;;;;13.49;56.08;100399.58;216271;1288;140822;-93
2023/03/18 16:45:42;;;;;;;40.20;23.70;;;;;;;13.41;56.52;100403.15;216712;1289;138589;-93
2023/03/18 16:50:46;;;;;;;32.50;17.90;;;;;;;13.29;57.44;100399.67;215630;1293;139013;-93
2023/03/18 16:55:50;;;;;;;38.40;20.00;;;;;;;13.19;56.88;100403.79;214649;1291;138940;-92
2023/03/18 17:00:51;;;;;;;39.40;18.70;;;;;;;13.04;56.81;100405.04;214018;1289;137751;-92
2023/03/18 17:05:52;;;;;;;38.50;18.20;;;;;;;12.89;57.87;100407.61;214615;1288;139089;-92
2023/03/18 17:10:57;;;;;;;36.70;18.60;;;;;;;12.77;59.53;100412.47;214167;1293;138987;-93
2023/03/18 17:15:58;;;;;;;39.10;17.60;;;;;;;12.63;60.02;100413.16;214352;1289;139448;-89
2023/03/18 17:20:59;;;;;;;38.90;18.60;;;;;;;12.50;61.07;100412.17;214792;1291;137695;-90
2023/03/18 17:26:01;;;;;;;49.30;24.20;;;;;;;12.35;60.90;100409.74;213780;1288;141024;-87
2023/03/18 17:31:04;;;;;;;62.10;31.80;;;;;;;12.20;61.02;100413.00;214383;1293;99262;-89
2023/03/18 17:36:06;;;;;;;59.70;30.00;;;;;;;12.01;60.95;100417.96;213403;1288;138646;-89
2023/03/18 17:41:16;;;;;;;53.10;27.60;;;;;;;11.84;60.82;100422.52;213926;1289;139183;-88
2023/03/18 17:46:17;;;;;;;49.80;25.90;;;;;;;11.66;61.80;100422.56;213611;1289;138358;-89
2023/03/18 17:51:22;;;;;;;49.60;28.40;;;;;;;11.52;62.64;100428.10;214144;1289;138616;-88
2023/03/18 17:56:23;;;;;;;55.50;29.10;;;;;;;11.31;63.32;100426.14;213464;1288;138675;-86
2023/03/18 18:01:26;;;;;;;54.80;29.70;;;;;;;11.14;64.18;100425.44;215411;1289;99257;-84
2023/03/18 18:06:28;;;;;;;63.60;33.10;;;;;;;10.96;64.63;100433.46;213875;1291;138562;-89
2023/03/18 18:11:36;;;;;;;64.70;35.80;;;;;;;10.78;65.26;100439.58;213998;1291;138947;-90
2023/03/18 18:16:37;;;;;;;57.90;31.50;;;;;;;10.62;65.46;100437.91;213752;1294;138934;-91
2023/03/18 18:21:38;;;;;;;72.40;38.90;;;;;;;10.51;66.20;100434.72;214273;1288;139717;-90
2023/03/18 18:26:39;;;;;;;67.30;34.10;;;;;;;10.33;66.45;100440.24;213798;1288;138571;-90
2023/03/18 18:31:39;;;;;;;56.60;28.40;;;;;;;10.11;66.91;100443.34;215039;1288;138447;-90
2023/03/18 18:36:41;;;;;;;53.80;28.60;;;;;;;9.94;67.38;100445.77;214353;1289;140068;-89
2023/03/18 18:41:42;;;;;;;51.40;26.90;;;;;;;9.80;68.04;100445.23;215244;1288;138174;-89
2023/03/18 18:46:43;;;;;;;55.40;30.80;;;;;;;9.64;68.78;100447.20;214149;1289;138764;-89
2023/03/18 18:51:43;;;;;;;59.00;31.40;;;;;;;9.48;68.90;100448.52;214609;1294;138717;-89
2023/03/18 18:56:44;;;;;;;54.50;28.40;;;;;;;9.35;69.46;100452.15;213428;1288;138116;-90
2023/03/18 19:01:44;;;;;;;58.00;31.00;;;;;;;9.22;69.85;100450.54;214042;1288;138021;-89
2023/03/18 19:06:52;;;;;;;65.60;34.90;;;;;;;9.09;70.00;100450.55;213813;1289;138605;-89
2023/03/18 19:11:55;;;;;;;74.30;38.50;;;;;;;8.93;70.61;100445.54;214168;1288;139069;-88
2023/03/18 19:16:59;;;;;;;68.10;37.00;;;;;;;8.75;71.16;100447.90;215205;1289;139070;-88
2023/03/18 19:22:01;;;;;;;59.10;32.90;;;;;;;8.59;71.67;100449.55;214116;1292;139851;-87
2023/03/18 19:27:04;;;;;;;52.70;27.00;;;;;;;8.47;72.43;100455.66;213759;1288;139275;-89
2023/03/18 19:32:07;;;;;;;50.60;26.50;;;;;;;8.27;72.84;100456.90;214145;1288;139065;-90
2023/03/18 19:37:17;;;;;;;51.00;25.90;;;;;;;8.14;72.84;100455.66;213619;1289;138809;-89
2023/03/18 19:42:18;;;;;;;49.40;25.60;;;;;;;8.05;73.56;100448.95;214387;1294;138486;-89
2023/03/18 19:47:28;;;;;;;58.80;28.60;;;;;;;7.95;73.72;100446.40;213602;1288;139064;-89
2023/03/18 19:52:29;;;;;;;45.90;26.20;;;;;;;7.85;73.90;100448.36;214142;1289;138741;-89
2023/03/18 19:57:31;;;;;;;51.90;27.00;;;;;;;7.72;74.23;100460.91;213743;1291;139070;-90
2023/03/18 20:02:33;;;;;;;64.20;31.40;;;;;;;7.58;74.76;100460.96;214253;1293;138665;-89
2023/03/18 20:07:35;;;;;;;59.60;29.40;;;;;;;7.50;74.97;100455.45;213595;1289;139240;-88
2023/03/18 20:12:39;;;;;;;56.10;29.50;;;;;;;7.37;74.98;100457.17;214161;1289;108467;-89
2023/03/18 20:17:43;;;;;;;53.00;26.60;;;;;;;7.24;75.68;100464.53;213585;1294;140225;-88
2023/03/18 20:22:51;;;;;;;52.30;28.10;;;;;;;7.09;76.38;100460.94;214110;1291;138766;-89
2023/03/18 20:27:55;;;;;;;62.50;32.30;;;;;;;6.98;76.68;100466.20;213611;1291;139175;-87
2023/03/18 20:32:56;;;;;;;58.40;29.00;;;;;;;6.90;77.01;100460.14;215785;1288;139257;-89
2023/03/18 20:37:59;;;;;;;54.20;29.00;;;;;;;6.79;77.37;100456.80;213545;1289;140239;-89
2023/03/18 20:43:00;;;;;;;59.60;29.50;;;;;;;6.67;77.75;100454.44;214694;1291;105794;-89
2023/03/18 20:48:01;;;;;;;63.00;31.40;;;;;;;6.53;78.08;100452.11;213927;1289;138857;-91
2023/03/18 20:53:03;;;;;;;57.50;30.30;;;;;;;6.42;78.51;100451.64;214096;1291;138611;-88
2023/03/18 20:58:05;;;;;;;68.40;31.50;;;;;;;6.34;78.84;100455.53;213650;1289;139697;-89
2023/03/18 21:03:21;;;;;;;54.40;29.50;;;;;;;6.27;79.28;100455.11;214117;1289;138811;-87
2023/03/18 21:08:22;;;;;;;63.30;32.90;;;;;;;6.17;79.40;100452.87;213723;1292;139540;-89
2023/03/18 21:13:34;;;;;;;62.60;32.60;;;;;;;6.11;79.60;100457.30;214289;1291;98065;-88
2023/03/18 21:18:35;;;;;;;58.10;31.20;;;;;;;6.06;80.28;100461.45;213983;1289;138761;-88
2023/03/18 21:23:35;;;;;;;65.30;33.80;;;;;;;5.97;80.44;100461.11;214377;1291;138769;-89
2023/03/18 21:28:36;;;;;;;75.60;36.30;;;;;;;5.86;80.42;100464.21;213990;1294;139139;-89
2023/03/18 21:33:37;;;;;;;71.10;35.90;;;;;;;5.76;80.74;100462.09;214276;1288;139585;-88
2023/03/18 21:38:38;;;;;;;63.60;33.90;;;;;;;5.67;81.25;100458.13;213649;1291;139976;-89
2023/03/18 21:43:39;;;;;;;68.50;35.30;;;;;;;5.61;81.58;100453.95;214531;1289;139828;-91
2023/03/18 21:48:40;;;;;;;63.50;32.00;;;;;;;5.54;81.93;100447.13;215882;1289;138372;-91
2023/03/18 21:53:41;;;;;;;70.90;37.30;;;;;;;5.48;82.22;100453.48;214660;1288;138505;-91
2023/03/18 21:58:41;;;;;;;62.30;32.30;;;;;;;5.36;82.49;100453.77;214067;1289;139534;-92
2023/03/18 22:03:42;;;;;;;65.30;33.40;;;;;;;5.28;82.62;100453.91;214881;1289;138795;-91
2023/03/18 22:08:42;;;;;;;69.30;36.40;;;;;;;5.24;82.78;100458.06;213904;1288;139089;-91
2023/03/18 22:13:44;;;;;;;70.30;37.30;;;;;;;5.15;83.07;100457.46;214240;1293;137684;-91
2023/03/18 22:18:46;;;;;;;66.60;34.30;;;;;;;5.09;83.47;100461.01;213643;1289;138405;-92
2023/03/18 22:23:46;;;;;;;69.30;36.20;;;;;;;5.02;83.82;100458.74;214207;1289;138734;-92
2023/03/18 22:28:48;;;;;;;69.20;36.40;;;;;;;4.97;83.87;100463.25;213794;1289;139483;-92
2023/03/18 22:33:49;;;;;;;62.10;33.20;;;;;;;4.92;84.12;100455.20;214145;1288;139818;-91
2023/03/18 22:38:50;;;;;;;71.60;35.30;;;;;;;4.85;84.48;100462.83;213755;1288;139570;-91
2023/03/18 22:43:51;;;;;;;64.90;33.00;;;;;;;4.75;84.49;100463.80;214266;1288;139393;-92
2023/03/18 22:48:51;;;;;;;67.90;34.50;;;;;;;4.70;84.46;100466.94;213943;1289;138923;-92